Time,TemperatureF,DewpointF,PressureIn,WindDirection,WindDirectionDegrees,WindSpeedMPH,WindSpeedGustMPH,Humidity,HourlyPrecipIn,Conditions,Clouds,dailyrainin,SoftwareType,DateUTC
2013-08-26 00:10:00,70.9,63.7,29.14,North,0,0.0,0.0,78,0.00,,---,0.00,VWS V14.00,2013-08-26 04:10:00,
2013-08-26 00:16:00,70.7,63.5,29.14,North,0,0.0,0.0,78,0.00,,---,0.00,VWS V14.00,2013-08-26 04:16:00,
2013-08-26 00:19:00,70.7,63.5,29.14,North,0,0.0,0.0,78,0.00,,---,0.00,VWS V14.00,2013-08-26 04:19:00,
2013-08-26 00:25:00,70.7,63.5,29.14,North,0,0.0,0.0,78,0.00,,---,0.00,VWS V14.00,2013-08-26 04:25:00,
2013-08-26 00:31:00,70.5,63.3,29.14,North,0,0.0,0.0,78,0.00,,---,0.00,VWS V14.00,2013-08-26 04:31:00,
2013-08-26 00:37:00,70.5,63.3,29.14,North,0,0.0,0.0,78,0.00,,---,0.00,VWS V14.00,2013-08-26 04:37:00,
2013-08-26 00:43:00,70.5,63.3,29.14,North,0,0.0,0.0,78,0.00,,---,0.00,VWS V14.00,2013-08-26 04:43:00,
2013-08-26 00:49:00,70.5,63.3,29.14,North,0,0.0,0.0,78,0.00,,---,0.00,VWS V14.00,2013-08-26 04:49:00,
2013-08-26 00:55:00,70.5,63.3,29.14,North,0,0.0,0.0,78,0.00,,---,0.00,VWS V14.00,2013-08-26 04:55:00,
2013-08-26 01:01:00,70.3,63.2,29.14,North,0,0.0,0.0,78,0.00,,---,0.00,VWS V14.00,2013-08-26 05:01:00,
2013-08-26 01:07:00,70.2,63.0,29.14,North,0,0.0,0.0,78,0.00,,---,0.00,VWS V14.00,2013-08-26 05:07:00,
2013-08-26 01:13:00,70.2,63.0,29.14,NE,45,0.0,0.0,78,0.00,,---,0.00,VWS V14.00,2013-08-26 05:13:00,
2013-08-26 01:19:00,70.0,62.8,29.14,NE,45,0.0,0.0,78,0.00,,---,0.00,VWS V14.00,2013-08-26 05:19:00,
2013-08-26 01:25:00,69.8,62.6,29.14,NE,45,0.0,0.0,78,0.00,,---,0.00,VWS V14.00,2013-08-26 05:25:00,
2013-08-26 01:31:00,69.6,62.5,29.14,NE,45,0.0,0.0,78,0.00,,---,0.00,VWS V14.00,2013-08-26 05:31:00,
2013-08-26 01:37:00,69.4,62.3,29.14,NE,45,0.0,0.0,78,0.00,,---,0.00,VWS V14.00,2013-08-26 05:37:00,
2013-08-26 01:43:00,69.3,62.1,29.14,NE,45,0.0,0.0,78,0.00,,---,0.00,VWS V14.00,2013-08-26 05:43:00,
2013-08-26 01:49:00,69.1,61.9,29.14,North,0,0.0,0.0,78,0.00,,---,0.00,VWS V14.00,2013-08-26 05:49:00,
2013-08-26 01:55:00,68.9,61.8,29.14,North,0,0.0,0.0,78,0.00,,---,0.00,VWS V14.00,2013-08-26 05:55:00,
2013-08-26 02:01:00,68.9,61.8,29.14,North,0,0.0,0.0,78,0.00,,---,0.00,VWS V14.00,2013-08-26 06:01:00,
2013-08-26 02:07:00,68.7,61.6,29.14,North,0,0.0,0.0,78,0.00,,---,0.00,VWS V14.00,2013-08-26 06:07:00,
2013-08-26 02:13:00,68.5,61.4,29.14,North,0,0.0,0.0,78,0.00,,---,0.00,VWS V14.00,2013-08-26 06:13:00,
2013-08-26 02:20:00,68.5,61.4,29.14,North,0,0.0,0.0,78,0.00,,---,0.00,VWS V14.00,2013-08-26 06:20:00,
2013-08-26 02:26:00,68.4,61.2,29.14,North,0,0.0,0.0,78,0.00,,---,0.00,VWS V14.00,2013-08-26 06:26:00,
2013-08-26 02:32:00,68.2,61.1,29.14,North,0,0.0,0.0,78,0.00,,---,0.00,VWS V14.00,2013-08-26 06:32:00,
2013-08-26 02:38:00,68.2,61.1,29.14,North,0,0.0,0.0,78,0.00,,---,0.00,VWS V14.00,2013-08-26 06:38:00,
2013-08-26 02:44:00,68.0,61.2,29.14,North,0,0.0,0.0,79,0.00,,---,0.00,VWS V14.00,2013-08-26 06:44:00,
2013-08-26 02:50:00,67.8,61.1,29.14,North,0,0.0,0.0,79,0.00,,---,0.00,VWS V14.00,2013-08-26 06:50:00,
2013-08-26 02:56:00,67.8,61.1,29.14,North,0,0.0,0.0,79,0.00,,---,0.00,VWS V14.00,2013-08-26 06:56:00,
2013-08-26 03:02:00,67.6,60.9,29.12,North,0,0.0,0.0,79,0.00,,---,0.00,VWS V14.00,2013-08-26 07:02:00,
2013-08-26 03:08:00,67.6,60.9,29.12,North,0,0.0,0.0,79,0.00,,---,0.00,VWS V14.00,2013-08-26 07:08:00,
2013-08-26 03:14:00,67.5,60.7,29.12,North,0,0.0,0.0,79,0.00,,---,0.00,VWS V14.00,2013-08-26 07:14:00,
2013-08-26 03:20:00,67.5,60.7,29.12,North,0,0.0,0.0,79,0.00,,---,0.00,VWS V14.00,2013-08-26 07:20:00,
2013-08-26 03:26:00,67.3,60.5,29.12,North,0,0.0,0.0,79,0.00,,---,0.00,VWS V14.00,2013-08-26 07:26:00,
2013-08-26 03:32:00,67.1,60.4,29.12,North,0,0.0,0.0,79,0.00,,---,0.00,VWS V14.00,2013-08-26 07:32:00,
2013-08-26 03:38:00,67.1,60.4,29.12,North,0,0.0,0.0,79,0.00,,---,0.00,VWS V14.00,2013-08-26 07:38:00,
2013-08-26 03:44:00,66.7,60.0,29.12,North,0,0.0,0.0,79,0.00,,---,0.00,VWS V14.00,2013-08-26 07:44:00,
2013-08-26 03:50:00,66.7,60.0,29.12,North,0,0.0,0.0,79,0.00,,---,0.00,VWS V14.00,2013-08-26 07:50:00,
2013-08-26 03:56:00,66.6,59.8,29.12,North,0,0.0,0.0,79,0.00,,---,0.00,VWS V14.00,2013-08-26 07:56:00,
2013-08-26 04:02:00,66.6,59.8,29.12,North,0,0.0,0.0,79,0.00,,---,0.00,VWS V14.00,2013-08-26 08:02:00,
2013-08-26 04:08:00,66.4,59.7,29.12,North,0,0.0,0.0,79,0.00,,---,0.00,VWS V14.00,2013-08-26 08:08:00,
2013-08-26 04:14:00,66.4,59.7,29.12,North,0,0.0,0.0,79,0.00,,---,0.00,VWS V14.00,2013-08-26 08:14:00,
2013-08-26 04:20:00,66.4,59.7,29.12,North,0,0.0,0.0,79,0.00,,---,0.00,VWS V14.00,2013-08-26 08:20:00,
2013-08-26 04:26:00,66.2,59.5,29.12,North,0,0.0,0.0,79,0.00,,---,0.00,VWS V14.00,2013-08-26 08:26:00,
2013-08-26 04:32:00,66.2,59.5,29.12,North,0,0.0,0.0,79,0.00,,---,0.00,VWS V14.00,2013-08-26 08:32:00,
2013-08-26 04:38:00,66.0,59.3,29.12,North,0,0.0,0.0,79,0.00,,---,0.00,VWS V14.00,2013-08-26 08:38:00,
2013-08-26 04:44:00,65.8,59.2,29.12,North,0,0.0,0.0,79,0.00,,---,0.00,VWS V14.00,2013-08-26 08:44:00,
2013-08-26 04:50:00,65.8,59.2,29.12,North,0,0.0,0.0,79,0.00,,---,0.00,VWS V14.00,2013-08-26 08:50:00,
2013-08-26 04:56:00,65.8,59.2,29.12,North,0,0.0,0.0,79,0.00,,---,0.00,VWS V14.00,2013-08-26 08:56:00,
2013-08-26 05:02:00,65.7,59.0,29.12,North,0,0.0,0.0,79,0.00,,---,0.00,VWS V14.00,2013-08-26 09:02:00,
2013-08-26 05:08:00,65.5,58.8,29.12,North,0,0.0,0.0,79,0.00,,---,0.00,VWS V14.00,2013-08-26 09:08:00,
2013-08-26 05:14:00,65.5,59.2,29.12,North,0,0.0,0.0,80,0.00,,---,0.00,VWS V14.00,2013-08-26 09:14:00,
2013-08-26 05:20:00,65.5,58.8,29.12,North,0,0.0,0.0,79,0.00,,---,0.00,VWS V14.00,2013-08-26 09:20:00,
2013-08-26 05:26:00,65.3,58.6,29.12,North,0,0.0,0.0,79,0.00,,---,0.00,VWS V14.00,2013-08-26 09:26:00,
2013-08-26 05:32:00,65.3,58.6,29.12,North,0,0.0,0.0,79,0.00,,---,0.00,VWS V14.00,2013-08-26 09:32:00,
2013-08-26 05:38:00,65.3,58.6,29.12,North,0,0.0,0.0,79,0.00,,---,0.00,VWS V14.00,2013-08-26 09:38:00,
2013-08-26 05:44:00,65.1,58.5,29.12,North,0,0.0,0.0,79,0.00,,---,0.00,VWS V14.00,2013-08-26 09:44:00,
2013-08-26 05:50:00,65.1,58.5,29.12,North,0,0.0,0.0,79,0.00,,---,0.00,VWS V14.00,2013-08-26 09:50:00,
2013-08-26 05:56:00,64.9,58.6,29.12,North,0,0.0,0.0,80,0.00,,---,0.00,VWS V14.00,2013-08-26 09:56:00,
2013-08-26 06:02:00,64.8,58.5,29.12,North,0,0.0,0.0,80,0.00,,---,0.00,VWS V14.00,2013-08-26 10:02:00,
2013-08-26 06:08:00,64.8,58.5,29.12,North,0,0.0,0.0,80,0.00,,---,0.00,VWS V14.00,2013-08-26 10:08:00,
2013-08-26 06:14:00,64.8,58.5,29.12,North,0,0.0,0.0,80,0.00,,---,0.00,VWS V14.00,2013-08-26 10:14:00,
2013-08-26 06:20:00,64.8,58.5,29.12,North,0,0.0,0.0,80,0.00,,---,0.00,VWS V14.00,2013-08-26 10:20:00,
2013-08-26 06:26:00,64.8,58.5,29.12,North,0,0.0,0.0,80,0.00,,---,0.00,VWS V14.00,2013-08-26 10:26:00,
2013-08-26 06:32:00,64.8,58.5,29.12,North,0,0.0,0.0,80,0.00,,---,0.00,VWS V14.00,2013-08-26 10:32:00,
2013-08-26 06:38:00,64.6,58.3,29.12,North,0,0.0,0.0,80,0.00,,---,0.00,VWS V14.00,2013-08-26 10:38:00,
2013-08-26 06:44:00,64.6,58.3,29.12,North,0,0.0,0.0,80,0.00,,---,0.00,VWS V14.00,2013-08-26 10:44:00,
2013-08-26 06:50:00,64.4,58.1,29.12,North,0,0.0,0.0,80,0.00,,---,0.00,VWS V14.00,2013-08-26 10:50:00,
2013-08-26 06:56:00,64.4,58.1,29.12,North,0,0.0,0.0,80,0.00,,---,0.00,VWS V14.00,2013-08-26 10:56:00,
2013-08-26 07:02:00,64.2,58.3,29.12,North,0,0.0,0.0,81,0.00,,---,0.00,VWS V14.00,2013-08-26 11:02:00,
2013-08-26 07:08:00,64.2,58.3,29.12,North,0,0.0,0.0,81,0.00,,---,0.00,VWS V14.00,2013-08-26 11:08:00,
2013-08-26 07:14:00,64.2,58.3,29.12,North,0,0.0,0.0,81,0.00,,---,0.00,VWS V14.00,2013-08-26 11:14:00,
2013-08-26 07:20:00,64.0,58.1,29.12,North,0,0.0,0.0,81,0.00,,---,0.00,VWS V14.00,2013-08-26 11:20:00,
2013-08-26 07:26:00,64.0,58.1,29.12,North,0,0.0,0.0,81,0.00,,---,0.00,VWS V14.00,2013-08-26 11:26:00,
2013-08-26 07:32:00,63.9,57.9,29.12,North,0,0.0,0.0,81,0.00,,---,0.00,VWS V14.00,2013-08-26 11:32:00,
2013-08-26 07:38:00,63.9,57.9,29.12,North,0,0.0,0.0,81,0.00,,---,0.00,VWS V14.00,2013-08-26 11:38:00,
2013-08-26 07:44:00,64.0,58.1,29.12,North,0,0.0,0.0,81,0.00,,---,0.00,VWS V14.00,2013-08-26 11:44:00,
2013-08-26 07:50:00,64.2,58.3,29.12,North,0,0.0,0.0,81,0.00,,---,0.00,VWS V14.00,2013-08-26 11:50:00,
2013-08-26 07:56:00,64.4,58.5,29.12,North,0,0.0,0.0,81,0.00,,---,0.00,VWS V14.00,2013-08-26 11:56:00,
2013-08-26 08:02:00,64.9,59.0,29.12,North,0,0.0,0.0,81,0.00,,---,0.00,VWS V14.00,2013-08-26 12:02:00,
2013-08-26 08:08:00,65.7,59.7,29.12,North,0,0.0,0.0,81,0.00,,---,0.00,VWS V14.00,2013-08-26 12:08:00,
2013-08-26 08:15:00,66.4,60.4,29.12,North,0,0.0,0.0,81,0.00,,---,0.00,VWS V14.00,2013-08-26 12:15:00,
2013-08-26 08:21:00,67.1,60.7,29.14,North,0,0.0,0.0,80,0.00,,---,0.00,VWS V14.00,2013-08-26 12:21:00,
2013-08-26 08:27:00,68.0,61.6,29.14,North,0,0.0,0.0,80,0.00,,---,0.00,VWS V14.00,2013-08-26 12:27:00,
2013-08-26 08:33:00,68.7,62.0,29.14,North,0,0.0,0.0,79,0.00,,---,0.00,VWS V14.00,2013-08-26 12:33:00,
2013-08-26 08:39:00,69.6,62.8,29.14,North,0,0.0,0.0,79,0.00,,---,0.00,VWS V14.00,2013-08-26 12:39:00,
2013-08-26 08:45:00,70.3,63.2,29.14,North,0,0.0,0.0,78,0.00,,---,0.00,VWS V14.00,2013-08-26 12:45:00,
2013-08-26 08:51:00,71.4,63.8,29.14,North,0,0.0,0.0,77,0.00,,---,0.00,VWS V14.00,2013-08-26 12:51:00,
2013-08-26 08:57:00,71.8,64.2,29.14,ENE,68,0.0,0.0,77,0.00,,---,0.00,VWS V14.00,2013-08-26 12:57:00,
2013-08-26 09:03:00,72.3,64.0,29.14,ENE,68,0.0,0.0,75,0.00,,---,0.00,VWS V14.00,2013-08-26 13:03:00,
2013-08-26 09:09:00,72.9,64.5,29.14,North,0,0.0,0.0,75,0.00,,---,0.00,VWS V14.00,2013-08-26 13:09:00,
2013-08-26 09:15:00,73.4,64.6,29.14,North,0,0.0,0.0,74,0.00,,---,0.00,VWS V14.00,2013-08-26 13:15:00,
2013-08-26 09:21:00,73.9,64.8,29.14,North,0,0.0,0.0,73,0.00,,---,0.00,VWS V14.00,2013-08-26 13:21:00,
2013-08-26 09:27:00,74.1,64.9,29.14,North,0,0.0,0.0,73,0.00,,---,0.00,VWS V14.00,2013-08-26 13:27:00,
2013-08-26 09:33:00,74.3,65.1,29.14,North,0,0.0,0.0,73,0.00,,---,0.00,VWS V14.00,2013-08-26 13:33:00,
2013-08-26 09:39:00,74.8,65.2,29.14,NW,315,0.0,2.5,72,0.00,,---,0.00,VWS V14.00,2013-08-26 13:39:00,
2013-08-26 09:45:00,75.0,65.0,29.14,WNW,292,0.0,2.5,71,0.00,,---,0.00,VWS V14.00,2013-08-26 13:45:00,
2013-08-26 09:51:00,75.2,64.8,29.14,WNW,292,0.0,2.5,70,0.00,,---,0.00,VWS V14.00,2013-08-26 13:51:00,
2013-08-26 09:57:00,75.6,64.7,29.14,WNW,292,0.0,2.5,69,0.00,,---,0.00,VWS V14.00,2013-08-26 13:57:00,
2013-08-26 10:03:00,75.9,65.0,29.14,WNW,292,0.0,0.0,69,0.00,,---,0.00,VWS V14.00,2013-08-26 14:03:00,
2013-08-26 10:09:00,76.3,64.9,29.14,NNW,338,0.0,0.0,68,0.00,,---,0.00,VWS V14.00,2013-08-26 14:09:00,
2013-08-26 10:15:00,76.6,65.3,29.14,West,270,0.9,0.9,68,0.00,,---,0.00,VWS V14.00,2013-08-26 14:15:00,
2013-08-26 10:21:00,77.0,65.6,29.14,NNE,22,0.0,0.9,68,0.00,,---,0.00,VWS V14.00,2013-08-26 14:21:00,
2013-08-26 10:27:00,77.2,65.4,29.14,West,270,0.0,0.9,67,0.00,,---,0.00,VWS V14.00,2013-08-26 14:27:00,
2013-08-26 10:33:00,77.5,65.7,29.14,SE,135,0.0,1.3,67,0.00,,---,0.00,VWS V14.00,2013-08-26 14:33:00,
2013-08-26 10:39:00,77.7,65.5,29.14,SE,135,1.1,1.3,66,0.00,,---,0.00,VWS V14.00,2013-08-26 14:39:00,
2013-08-26 10:45:00,77.9,65.6,29.14,South,180,0.0,1.3,66,0.00,,---,0.00,VWS V14.00,2013-08-26 14:45:00,
2013-08-26 10:51:00,78.3,66.0,29.14,South,180,0.0,1.3,66,0.00,,---,0.00,VWS V14.00,2013-08-26 14:51:00,
2013-08-26 10:57:00,78.6,66.3,29.14,SE,135,0.0,1.3,66,0.00,,---,0.00,VWS V14.00,2013-08-26 14:57:00,
2013-08-26 11:03:00,78.6,65.9,29.14,SSW,202,0.0,0.0,65,0.00,,---,0.00,VWS V14.00,2013-08-26 15:03:00,
2013-08-26 11:09:00,78.8,66.1,29.14,SE,135,0.0,0.0,65,0.00,,---,0.00,VWS V14.00,2013-08-26 15:09:00,
2013-08-26 11:15:00,78.8,66.1,29.14,SSE,158,1.3,1.6,65,0.00,,---,0.00,VWS V14.00,2013-08-26 15:15:00,
2013-08-26 11:21:00,79.0,66.2,29.14,NW,315,0.0,1.6,65,0.00,,---,0.00,VWS V14.00,2013-08-26 15:21:00,
2013-08-26 11:27:00,79.2,66.4,29.14,East,90,0.0,1.6,65,0.00,,---,0.00,VWS V14.00,2013-08-26 15:27:00,
2013-08-26 11:33:00,79.3,66.6,29.14,SW,225,0.0,1.6,65,0.00,,---,0.00,VWS V14.00,2013-08-26 15:33:00,
2013-08-26 11:39:00,79.5,66.7,29.14,WSW,248,0.0,2.2,65,0.00,,---,0.00,VWS V14.00,2013-08-26 15:39:00,
2013-08-26 11:45:00,79.7,66.9,29.14,NE,45,1.3,2.2,65,0.00,,---,0.00,VWS V14.00,2013-08-26 15:45:00,
2013-08-26 11:51:00,79.9,67.1,29.14,NE,45,0.0,2.5,65,0.00,,---,0.00,VWS V14.00,2013-08-26 15:51:00,
2013-08-26 11:57:00,79.9,67.1,29.14,East,90,0.0,2.5,65,0.00,,---,0.00,VWS V14.00,2013-08-26 15:57:00,
2013-08-26 12:03:00,80.1,67.2,29.14,SSE,158,0.9,1.3,65,0.00,,---,0.00,VWS V14.00,2013-08-26 16:03:00,
2013-08-26 12:09:00,80.2,67.4,29.12,NE,45,0.0,1.3,65,0.00,,---,0.00,VWS V14.00,2013-08-26 16:09:00,
2013-08-26 12:15:00,80.2,67.4,29.12,West,270,2.2,2.2,65,0.00,,---,0.00,VWS V14.00,2013-08-26 16:15:00,
2013-08-26 12:21:00,80.4,67.6,29.12,ESE,112,0.0,2.2,65,0.00,,---,0.00,VWS V14.00,2013-08-26 16:21:00,
2013-08-26 12:27:00,80.6,67.3,29.12,SW,225,1.6,2.2,64,0.00,,---,0.00,VWS V14.00,2013-08-26 16:27:00,
2013-08-26 12:33:00,80.8,67.5,29.12,South,180,0.0,2.2,64,0.00,,---,0.00,VWS V14.00,2013-08-26 16:33:00,
2013-08-26 12:39:00,81.0,67.7,29.12,WNW,292,0.0,2.5,64,0.00,,---,0.00,VWS V14.00,2013-08-26 16:39:00,
2013-08-26 12:45:00,81.1,67.8,29.12,SE,135,0.0,2.5,64,0.00,,---,0.00,VWS V14.00,2013-08-26 16:45:00,
2013-08-26 12:51:00,81.3,67.1,29.12,SSE,158,0.0,2.5,62,0.00,,---,0.00,VWS V14.00,2013-08-26 16:51:00,
2013-08-26 12:57:00,81.5,67.7,29.12,SE,135,0.0,2.5,63,0.00,,---,0.00,VWS V14.00,2013-08-26 16:57:00,
2013-08-26 13:03:00,81.5,67.7,29.09,West,270,0.0,0.9,63,0.00,,---,0.00,VWS V14.00,2013-08-26 17:03:00,
2013-08-26 13:09:00,81.5,67.2,29.09,SE,135,0.0,2.5,62,0.00,,---,0.00,VWS V14.00,2013-08-26 17:09:00,
2013-08-26 13:15:00,81.5,67.7,29.09,East,90,0.0,2.5,63,0.00,,---,0.00,VWS V14.00,2013-08-26 17:15:00,
2013-08-26 13:21:00,81.7,67.9,29.09,East,90,1.3,6.3,63,0.00,,---,0.00,VWS V14.00,2013-08-26 17:21:00,
2013-08-26 13:27:00,81.7,68.3,29.09,NW,315,1.1,6.3,64,0.00,,---,0.00,VWS V14.00,2013-08-26 17:27:00,
2013-08-26 13:33:00,81.9,68.0,29.09,SE,135,0.0,6.3,63,0.00,,---,0.00,VWS V14.00,2013-08-26 17:33:00,
2013-08-26 13:39:00,81.9,67.6,29.09,WSW,248,0.0,6.3,62,0.00,,---,0.00,VWS V14.00,2013-08-26 17:39:00,
2013-08-26 13:46:00,81.9,67.6,29.09,West,270,0.0,6.3,62,0.00,,---,0.00,VWS V14.00,2013-08-26 17:46:00,
2013-08-26 13:52:00,82.0,67.8,29.09,SSE,158,0.0,6.3,62,0.00,,---,0.00,VWS V14.00,2013-08-26 17:52:00,
2013-08-26 13:58:00,82.0,67.3,29.09,ENE,68,0.0,6.3,61,0.00,,---,0.00,VWS V14.00,2013-08-26 17:58:00,
2013-08-26 14:04:00,82.0,67.8,29.09,East,90,0.0,0.0,62,0.00,,---,0.00,VWS V14.00,2013-08-26 18:04:00,
2013-08-26 14:10:00,82.0,67.3,29.09,NNE,22,0.0,2.0,61,0.00,,---,0.00,VWS V14.00,2013-08-26 18:10:00,
2013-08-26 14:16:00,82.0,67.3,29.09,WNW,292,0.0,2.0,61,0.00,,---,0.00,VWS V14.00,2013-08-26 18:16:00,
2013-08-26 14:22:00,82.2,67.4,29.09,East,90,0.0,2.0,61,0.00,,---,0.00,VWS V14.00,2013-08-26 18:22:00,
2013-08-26 14:28:00,82.2,67.4,29.09,ENE,68,0.0,2.0,61,0.00,,---,0.00,VWS V14.00,2013-08-26 18:28:00,
2013-08-26 14:34:00,82.4,68.1,29.09,East,90,0.0,2.0,62,0.00,,---,0.00,VWS V14.00,2013-08-26 18:34:00,
2013-08-26 14:40:00,82.4,67.6,29.09,SSE,158,0.0,2.0,61,0.00,,---,0.00,VWS V14.00,2013-08-26 18:40:00,
2013-08-26 14:46:00,82.4,67.1,29.09,NW,315,0.0,2.0,60,0.00,,---,0.00,VWS V14.00,2013-08-26 18:46:00,
2013-08-26 14:52:00,82.4,67.1,29.06,South,180,0.0,2.0,60,0.00,,---,0.00,VWS V14.00,2013-08-26 18:52:00,
2013-08-26 14:58:00,82.4,67.1,29.06,ESE,112,0.0,2.7,60,0.00,,---,0.00,VWS V14.00,2013-08-26 18:58:00,
2013-08-26 15:04:00,82.4,67.1,29.06,ENE,68,1.1,1.6,60,0.00,,---,0.00,VWS V14.00,2013-08-26 19:04:00,
2013-08-26 15:10:00,82.6,67.3,29.06,ESE,112,0.0,2.0,60,0.00,,---,0.00,VWS V14.00,2013-08-26 19:10:00,
2013-08-26 15:16:00,82.6,67.8,29.06,East,90,0.0,2.0,61,0.00,,---,0.00,VWS V14.00,2013-08-26 19:16:00,
2013-08-26 15:22:00,82.8,67.5,29.06,WNW,292,0.0,2.0,60,0.00,,---,0.00,VWS V14.00,2013-08-26 19:22:00,
2013-08-26 15:28:00,82.8,67.5,29.06,North,0,0.0,2.0,60,0.00,,---,0.00,VWS V14.00,2013-08-26 19:28:00,
2013-08-26 15:34:00,82.8,67.9,29.06,SE,135,0.0,2.0,61,0.00,,---,0.00,VWS V14.00,2013-08-26 19:34:00,
2013-08-26 15:40:00,82.8,67.9,29.06,WNW,292,0.0,4.9,61,0.00,,---,0.00,VWS V14.00,2013-08-26 19:40:00,
2013-08-26 15:46:00,82.8,67.9,29.06,SSE,158,0.0,4.9,61,0.00,,---,0.00,VWS V14.00,2013-08-26 19:46:00,
2013-08-26 15:52:00,82.8,67.9,29.03,South,180,0.0,4.9,61,0.00,,---,0.00,VWS V14.00,2013-08-26 19:52:00,
2013-08-26 15:58:00,82.9,67.6,29.03,NNE,22,0.0,4.9,60,0.00,,---,0.00,VWS V14.00,2013-08-26 19:58:00,
2013-08-26 16:04:00,82.9,68.6,29.03,NW,315,0.0,1.1,62,0.00,,---,0.00,VWS V14.00,2013-08-26 20:04:00,
2013-08-26 16:10:00,82.9,68.1,29.03,NW,315,0.0,1.1,61,0.00,,---,0.00,VWS V14.00,2013-08-26 20:10:00,
2013-08-26 16:16:00,82.9,67.6,29.03,East,90,0.0,2.7,60,0.00,,---,0.00,VWS V14.00,2013-08-26 20:16:00,
2013-08-26 16:22:00,82.9,68.1,29.03,SW,225,0.0,2.7,61,0.00,,---,0.00,VWS V14.00,2013-08-26 20:22:00,
2013-08-26 16:28:00,82.9,68.1,29.03,SSE,158,0.0,2.7,61,0.00,,---,0.00,VWS V14.00,2013-08-26 20:28:00,
2013-08-26 16:34:00,82.9,68.6,29.03,North,0,0.0,2.7,62,0.00,,---,0.00,VWS V14.00,2013-08-26 20:34:00,
2013-08-26 16:40:00,82.9,69.1,29.03,WNW,292,0.0,2.7,63,0.00,,---,0.00,VWS V14.00,2013-08-26 20:40:00,
2013-08-26 16:46:00,83.1,68.3,29.03,SW,225,0.0,2.7,61,0.00,,---,0.00,VWS V14.00,2013-08-26 20:46:00,
2013-08-26 16:52:00,83.1,68.8,29.03,South,180,0.0,2.7,62,0.00,,---,0.00,VWS V14.00,2013-08-26 20:52:00,
2013-08-26 16:58:00,82.9,68.1,29.03,SE,135,0.0,2.7,61,0.00,,---,0.00,VWS V14.00,2013-08-26 20:58:00,
2013-08-26 17:04:00,82.9,68.1,29.03,West,270,2.0,2.0,61,0.00,,---,0.00,VWS V14.00,2013-08-26 21:04:00,
2013-08-26 17:10:00,82.9,68.6,29.03,ENE,68,0.0,3.4,62,0.00,,---,0.00,VWS V14.00,2013-08-26 21:10:00,
2013-08-26 17:16:00,82.8,68.4,29.03,ESE,112,0.0,3.4,62,0.00,,---,0.00,VWS V14.00,2013-08-26 21:16:00,
2013-08-26 17:22:00,82.8,68.4,29.03,East,90,0.0,3.4,62,0.00,,---,0.00,VWS V14.00,2013-08-26 21:22:00,
2013-08-26 17:28:00,82.6,68.7,29.03,SW,225,0.0,3.4,63,0.00,,---,0.00,VWS V14.00,2013-08-26 21:28:00,
2013-08-26 17:34:00,82.6,69.2,29.03,West,270,0.0,3.4,64,0.00,,---,0.00,VWS V14.00,2013-08-26 21:34:00,
2013-08-26 17:40:00,82.6,69.2,29.03,NW,315,0.0,3.4,64,0.00,,---,0.00,VWS V14.00,2013-08-26 21:40:00,
2013-08-26 17:46:00,82.4,68.6,29.00,SE,135,0.0,3.4,63,0.00,,---,0.00,VWS V14.00,2013-08-26 21:46:00,
2013-08-26 17:52:00,82.4,68.6,29.00,SE,135,0.0,3.4,63,0.00,,---,0.00,VWS V14.00,2013-08-26 21:52:00,
2013-08-26 17:58:00,82.2,68.8,29.00,East,90,0.0,3.4,64,0.00,,---,0.00,VWS V14.00,2013-08-26 21:58:00,
2013-08-26 18:04:00,82.0,68.7,29.00,WSW,248,0.0,0.0,64,0.00,,---,0.00,VWS V14.00,2013-08-26 22:04:00,
2013-08-26 18:10:00,82.0,68.7,29.00,West,270,0.0,0.0,64,0.00,,---,0.00,VWS V14.00,2013-08-26 22:10:00,
2013-08-26 18:16:00,81.9,68.5,29.00,NE,45,0.0,0.9,64,0.00,,---,0.00,VWS V14.00,2013-08-26 22:16:00,
2013-08-26 18:22:00,81.7,68.3,29.00,WNW,292,0.0,1.6,64,0.00,,---,0.00,VWS V14.00,2013-08-26 22:22:00,
2013-08-26 18:28:00,81.7,68.3,29.00,SW,225,0.0,1.6,64,0.00,,---,0.00,VWS V14.00,2013-08-26 22:28:00,
2013-08-26 18:34:00,81.5,68.2,29.00,SSW,202,0.0,1.6,64,0.00,,---,0.00,VWS V14.00,2013-08-26 22:34:00,
2013-08-26 18:40:00,81.3,68.4,29.00,NW,315,0.0,1.6,65,0.00,,---,0.00,VWS V14.00,2013-08-26 22:40:00,
2013-08-26 18:46:00,81.1,68.3,29.00,SE,135,0.0,1.6,65,0.00,,---,0.00,VWS V14.00,2013-08-26 22:46:00,
2013-08-26 18:52:00,81.0,68.1,29.00,SW,225,0.0,1.6,65,0.00,,---,0.00,VWS V14.00,2013-08-26 22:52:00,
2013-08-26 18:58:00,80.8,67.9,29.00,West,270,0.0,1.6,65,0.00,,---,0.00,VWS V14.00,2013-08-26 22:58:00,
2013-08-26 19:04:00,80.6,68.2,28.97,West,270,0.0,0.0,66,0.00,,---,0.00,VWS V14.00,2013-08-26 23:04:00,
2013-08-26 19:10:00,80.4,68.5,28.97,West,270,0.0,0.0,67,0.00,,---,0.00,VWS V14.00,2013-08-26 23:10:00,
2013-08-26 19:16:00,80.1,68.1,28.97,West,270,0.0,0.0,67,0.00,,---,0.00,VWS V14.00,2013-08-26 23:16:00,
2013-08-26 19:22:00,79.9,67.9,28.97,West,270,0.0,0.0,67,0.00,,---,0.00,VWS V14.00,2013-08-26 23:22:00,
2013-08-26 19:28:00,79.5,67.6,28.97,West,270,0.0,0.0,67,0.00,,---,0.00,VWS V14.00,2013-08-26 23:28:00,
2013-08-26 19:35:00,79.3,67.9,28.97,West,270,0.0,0.0,68,0.00,,---,0.00,VWS V14.00,2013-08-26 23:35:00,
2013-08-26 19:41:00,79.0,67.5,28.97,West,270,0.0,0.0,68,0.00,,---,0.00,VWS V14.00,2013-08-26 23:41:00,
2013-08-26 19:47:00,78.8,67.4,28.97,West,270,0.0,0.0,68,0.00,,---,0.00,VWS V14.00,2013-08-26 23:47:00,
2013-08-26 19:53:00,78.4,67.8,28.97,West,270,0.0,0.0,70,0.00,,---,0.00,VWS V14.00,2013-08-26 23:53:00,
2013-08-26 19:59:00,78.1,67.5,28.97,West,270,0.0,0.0,70,0.00,,---,0.00,VWS V14.00,2013-08-26 23:59:00,
2013-08-26 20:05:00,77.7,67.2,28.97,West,270,0.0,0.0,70,0.00,,---,0.00,VWS V14.00,2013-08-27 00:05:00,
2013-08-26 20:11:00,77.4,67.2,28.97,West,270,0.0,0.0,71,0.00,,---,0.00,VWS V14.00,2013-08-27 00:11:00,
2013-08-26 20:17:00,77.0,66.9,28.97,West,270,0.0,0.0,71,0.00,,---,0.00,VWS V14.00,2013-08-27 00:17:00,
2013-08-26 20:23:00,76.6,66.9,28.97,West,270,0.0,0.0,72,0.00,,---,0.00,VWS V14.00,2013-08-27 00:23:00,
2013-08-26 20:29:00,76.3,67.0,28.97,West,270,0.0,0.0,73,0.00,,---,0.00,VWS V14.00,2013-08-27 00:29:00,
2013-08-26 20:35:00,75.9,66.7,28.97,West,270,0.0,0.0,73,0.00,,---,0.00,VWS V14.00,2013-08-27 00:35:00,
2013-08-26 20:41:00,75.7,66.9,28.97,West,270,0.0,0.0,74,0.00,,---,0.00,VWS V14.00,2013-08-27 00:41:00,
2013-08-26 20:47:00,75.7,66.5,28.97,West,270,0.0,0.0,73,0.00,,---,0.00,VWS V14.00,2013-08-27 00:47:00,
2013-08-26 20:53:00,75.6,66.3,28.97,West,270,0.0,0.0,73,0.00,,---,0.00,VWS V14.00,2013-08-27 00:53:00,
2013-08-26 20:59:00,75.2,66.0,28.97,West,270,0.0,0.0,73,0.00,,---,0.00,VWS V14.00,2013-08-27 00:59:00,
2013-08-26 21:05:00,75.0,66.2,28.97,West,270,0.0,0.0,74,0.00,,---,0.00,VWS V14.00,2013-08-27 01:05:00,
2013-08-26 21:11:00,74.8,66.4,28.97,West,270,0.0,0.0,75,0.00,,---,0.00,VWS V14.00,2013-08-27 01:11:00,
2013-08-26 21:17:00,74.7,66.2,28.97,WNW,292,0.0,0.0,75,0.00,,---,0.00,VWS V14.00,2013-08-27 01:17:00,
2013-08-26 21:23:00,74.5,66.0,28.97,WNW,292,0.0,0.0,75,0.00,,---,0.00,VWS V14.00,2013-08-27 01:23:00,
2013-08-26 21:29:00,74.1,65.7,28.97,NW,315,0.0,0.0,75,0.00,,---,0.00,VWS V14.00,2013-08-27 01:29:00,
2013-08-26 21:35:00,74.1,65.7,29.00,NNW,338,0.0,0.0,75,0.00,,---,0.00,VWS V14.00,2013-08-27 01:35:00,
2013-08-26 21:41:00,73.9,65.5,29.00,NNW,338,0.0,0.0,75,0.00,,---,0.00,VWS V14.00,2013-08-27 01:41:00,
2013-08-26 21:47:00,73.8,65.7,29.00,NNW,338,0.0,0.0,76,0.00,,---,0.00,VWS V14.00,2013-08-27 01:47:00,
2013-08-26 21:53:00,73.6,65.6,29.00,NNW,338,0.0,0.0,76,0.00,,---,0.00,VWS V14.00,2013-08-27 01:53:00,
2013-08-26 21:59:00,73.4,65.4,29.00,NNW,338,0.0,0.0,76,0.00,,---,0.00,VWS V14.00,2013-08-27 01:59:00,
2013-08-26 22:05:00,73.4,65.4,29.00,NNW,338,0.0,0.0,76,0.00,,---,0.00,VWS V14.00,2013-08-27 02:05:00,
2013-08-26 22:11:00,73.2,65.6,29.00,NNW,338,0.0,0.0,77,0.00,,---,0.00,VWS V14.00,2013-08-27 02:11:00,
2013-08-26 22:17:00,73.0,65.4,29.00,NNW,338,0.0,0.0,77,0.00,,---,0.00,VWS V14.00,2013-08-27 02:17:00,
2013-08-26 22:23:00,72.9,65.2,29.00,NNW,338,0.0,0.0,77,0.00,,---,0.00,VWS V14.00,2013-08-27 02:23:00,
2013-08-26 22:29:00,72.7,65.1,29.00,NNW,338,0.0,0.0,77,0.00,,---,0.00,VWS V14.00,2013-08-27 02:29:00,
2013-08-26 22:35:00,72.5,64.9,29.00,NNW,338,0.0,0.0,77,0.00,,---,0.00,VWS V14.00,2013-08-27 02:35:00,
2013-08-26 22:41:00,72.3,64.7,29.00,NNW,338,0.0,0.0,77,0.00,,---,0.00,VWS V14.00,2013-08-27 02:41:00,
2013-08-26 22:47:00,72.1,64.5,29.00,NNW,338,0.0,0.0,77,0.00,,---,0.00,VWS V14.00,2013-08-27 02:47:00,
2013-08-26 22:53:00,72.0,64.4,29.00,NNW,338,0.0,0.0,77,0.00,,---,0.00,VWS V14.00,2013-08-27 02:53:00,
2013-08-26 22:59:00,71.8,64.2,29.00,NNW,338,0.0,0.0,77,0.00,,---,0.00,VWS V14.00,2013-08-27 02:59:00,
2013-08-26 23:05:00,71.8,64.2,29.00,NNW,338,0.0,0.0,77,0.00,,---,0.00,VWS V14.00,2013-08-27 03:05:00,
2013-08-26 23:11:00,71.8,64.2,29.00,NNW,338,0.0,0.0,77,0.00,,---,0.00,VWS V14.00,2013-08-27 03:11:00,
2013-08-26 23:17:00,71.4,64.2,29.00,NNW,338,0.0,0.0,78,0.00,,---,0.00,VWS V14.00,2013-08-27 03:17:00,
2013-08-26 23:23:00,71.4,64.2,29.00,NNW,338,0.0,0.0,78,0.00,,---,0.00,VWS V14.00,2013-08-27 03:23:00,
2013-08-26 23:29:00,71.2,64.0,29.00,NNW,338,0.0,0.0,78,0.00,,---,0.00,VWS V14.00,2013-08-27 03:29:00,
2013-08-26 23:35:00,71.2,64.0,29.00,NNW,338,0.0,0.0,78,0.00,,---,0.00,VWS V14.00,2013-08-27 03:35:00,
2013-08-26 23:41:00,71.1,63.9,29.00,NNW,338,0.0,0.0,78,0.00,,---,0.00,VWS V14.00,2013-08-27 03:41:00,
2013-08-26 23:47:00,70.9,63.7,29.00,NNW,338,0.0,0.0,78,0.00,,---,0.00,VWS V14.00,2013-08-27 03:47:00,
2013-08-26 23:53:00,70.9,63.7,29.00,NNW,338,0.0,0.0,78,0.00,,---,0.00,VWS V14.00,2013-08-27 03:53:00,
2013-08-26 23:59:00,70.7,63.5,29.00,NNW,338,0.0,0.0,78,0.00,,---,0.00,VWS V14.00,2013-08-27 03:59:00,